createdAt,value
2023-02-22T00:01:35.950Z,5.70
2023-02-22T00:04:07.052Z,5.75
2023-02-22T00:06:34.162Z,5.50
2023-02-22T00:09:02.537Z,4.78
2023-02-22T00:11:31.464Z,5.43
2023-02-22T00:13:58.394Z,5.25
2023-02-22T00:16:26.502Z,5.50
2023-02-22T00:18:54.273Z,5.80
2023-02-22T00:21:21.652Z,5.10
2023-02-22T00:23:49.569Z,5.03
2023-02-22T00:26:21.958Z,4.75
2023-02-22T00:28:53.649Z,5.00
2023-02-22T00:31:21.691Z,5.00
2023-02-22T00:33:48.668Z,4.95
2023-02-22T00:36:15.776Z,5.00
2023-02-22T00:38:42.744Z,4.75
2023-02-22T00:41:10.319Z,4.60
2023-02-22T00:43:37.185Z,4.70
2023-02-22T00:46:04.633Z,4.93
2023-02-22T00:48:31.421Z,4.40
2023-02-22T00:50:58.165Z,4.20
2023-02-22T00:53:26.115Z,4.30
2023-02-22T00:55:53.750Z,3.90
2023-02-22T00:58:21.185Z,3.92
2023-02-22T01:00:49.286Z,4.05
2023-02-22T01:03:19.132Z,4.15
2023-02-22T01:05:47.031Z,4.43
2023-02-22T01:08:17.869Z,4.20
2023-02-22T01:10:45.236Z,4.15
2023-02-22T01:13:13.176Z,4.60
2023-02-22T01:15:44.777Z,3.65
2023-02-22T01:18:12.935Z,4.15
2023-02-22T01:20:39.915Z,3.92
2023-02-22T01:23:08.146Z,4.20
2023-02-22T01:29:23.432Z,4.40
2023-02-22T01:31:55.591Z,4.00
2023-02-22T01:34:24.205Z,4.05
2023-02-22T01:36:50.934Z,4.00
2023-02-22T01:39:18.166Z,3.97
2023-02-22T01:41:45.770Z,4.15
2023-02-22T01:44:29.208Z,4.05
2023-02-22T01:46:58.081Z,4.07
2023-02-22T01:49:29.619Z,3.97
2023-02-22T01:51:58.882Z,3.80
2023-02-22T01:54:32.254Z,3.67
2023-02-22T01:57:07.505Z,4.07
2023-02-22T01:59:37.851Z,3.85
2023-02-22T02:02:05.384Z,3.88
2023-02-22T02:04:33.472Z,4.03
2023-02-22T02:07:04.119Z,3.80
2023-02-22T02:09:43.565Z,4.00
2023-02-22T02:12:12.529Z,4.05
2023-02-22T02:14:41.699Z,3.92
2023-02-22T02:17:11.746Z,4.47
2023-02-22T02:20:13.170Z,4.22
2023-02-22T02:23:02.875Z,4.50
2023-02-22T02:25:41.674Z,3.95
2023-02-22T02:28:35.163Z,3.97
2023-02-22T02:31:31.054Z,3.70
2023-02-22T02:34:21.882Z,4.43
2023-02-22T02:36:57.351Z,4.57
2023-02-22T02:39:30.786Z,4.25
2023-02-22T02:42:00.749Z,3.30
2023-02-22T02:44:48.738Z,4.40
2023-02-22T02:47:22.106Z,5.10
2023-02-22T02:50:01.014Z,4.68
2023-02-22T02:52:29.156Z,4.93
2023-02-22T02:54:57.169Z,4.90
2023-02-22T02:57:24.728Z,5.13
2023-02-22T02:59:51.621Z,5.22
2023-02-22T03:02:30.074Z,4.93
2023-02-22T03:05:07.601Z,5.13
2023-02-22T03:07:52.440Z,5.20
2023-02-22T03:12:58.590Z,5.13
2023-02-22T03:15:40.569Z,5.57
2023-02-22T03:18:22.880Z,5.40
2023-02-22T03:21:10.393Z,5.18
2023-02-22T03:24:02.900Z,5.32
2023-02-22T03:26:41.467Z,5.15
2023-02-22T03:29:11.318Z,5.20
2023-02-22T03:31:48.625Z,4.90
2023-02-22T03:34:25.838Z,4.80
2023-02-22T03:37:03.927Z,5.13
2023-02-22T03:39:32.368Z,4.88
2023-02-22T03:42:08.813Z,5.00
2023-02-22T03:44:40.230Z,5.07
2023-02-22T03:47:12.897Z,4.80
2023-02-22T03:49:51.422Z,4.90
2023-02-22T03:52:19.250Z,5.13
2023-02-22T03:54:45.990Z,4.80
2023-02-22T03:57:20.313Z,4.93
2023-02-22T03:59:47.548Z,5.20
2023-02-22T04:02:14.265Z,5.07
2023-02-22T04:04:41.047Z,4.50
2023-02-22T04:07:07.780Z,4.65
2023-02-22T04:09:34.459Z,5.03
2023-02-22T04:12:01.182Z,5.18
2023-02-22T04:14:29.547Z,4.60
2023-02-22T04:16:56.471Z,4.40
2023-02-22T04:19:23.157Z,5.47
2023-02-22T04:21:49.828Z,5.00
2023-02-22T04:24:16.540Z,4.72
2023-02-22T04:26:43.360Z,4.90
2023-02-22T04:29:10.258Z,4.75
2023-02-22T04:31:37.117Z,4.68
2023-02-22T04:34:04.193Z,4.82
2023-02-22T04:36:34.461Z,4.85
2023-02-22T04:39:01.820Z,5.30
2023-02-22T04:41:28.622Z,4.60
2023-02-22T04:43:55.347Z,4.53
2023-02-22T04:46:22.087Z,5.20
2023-02-22T04:48:49.180Z,4.15
2023-02-22T04:51:16.543Z,5.18
2023-02-22T04:53:43.332Z,5.47
2023-02-22T04:56:10.055Z,5.10
2023-02-22T04:58:36.840Z,5.22
2023-02-22T05:01:04.044Z,5.60
2023-02-22T05:03:30.853Z,5.25
2023-02-22T05:05:57.589Z,5.43
2023-02-22T05:08:24.277Z,5.03
2023-02-22T05:10:50.994Z,5.90
2023-02-22T05:13:17.673Z,5.60
2023-02-22T05:15:44.403Z,5.68
2023-02-22T05:18:11.083Z,6.47
2023-02-22T05:20:37.895Z,6.45
2023-02-22T05:23:05.611Z,6.57
2023-02-22T05:25:33.610Z,5.50
2023-02-22T05:28:10.661Z,5.82
2023-02-22T05:30:41.112Z,5.60
2023-02-22T05:33:09.092Z,5.05
2023-02-22T05:35:37.128Z,5.63
2023-02-22T05:38:04.752Z,6.18
2023-02-22T05:40:32.069Z,5.72
2023-02-22T05:43:00.700Z,6.82
2023-02-22T05:45:28.528Z,7.13
2023-02-22T05:47:55.690Z,6.40
2023-02-22T05:50:22.906Z,6.05
2023-02-22T05:52:49.745Z,7.35
2023-02-22T05:55:19.066Z,6.90
2023-02-22T05:57:45.905Z,5.80
2023-02-22T06:00:25.102Z,6.68
2023-02-22T06:03:06.485Z,5.28
2023-02-22T06:05:33.267Z,6.18
2023-02-22T06:08:00.674Z,5.72
2023-02-22T06:10:27.914Z,5.80
2023-02-22T06:12:55.120Z,6.93
2023-02-22T06:15:24.034Z,6.85
2023-02-22T06:17:51.982Z,6.68
2023-02-22T06:20:21.451Z,7.78
2023-02-22T06:22:49.503Z,7.00
2023-02-22T06:25:19.331Z,7.15
2023-02-22T06:27:46.101Z,6.80
2023-02-22T06:30:14.001Z,7.35
2023-02-22T06:32:40.726Z,6.45
2023-02-22T06:35:08.731Z,6.15
2023-02-22T06:37:36.188Z,6.50
2023-02-22T06:40:05.687Z,6.90
2023-02-22T06:42:32.952Z,6.80
2023-02-22T06:44:59.957Z,7.25
2023-02-22T06:47:26.707Z,7.63
2023-02-22T06:49:54.980Z,6.72
2023-02-22T06:52:22.744Z,6.93
2023-02-22T06:54:50.170Z,7.40
2023-02-22T06:57:17.600Z,7.70
2023-02-22T06:59:44.516Z,8.20
2023-02-22T07:02:14.844Z,7.93
2023-02-22T07:04:43.415Z,7.25
2023-02-22T07:07:10.811Z,7.45
2023-02-22T07:09:37.880Z,7.25
2023-02-22T07:12:04.648Z,7.97
2023-02-22T07:14:31.508Z,9.40
2023-02-22T07:16:58.222Z,8.05
2023-02-22T07:19:25.150Z,8.88
2023-02-22T07:21:59.349Z,11.32
2023-02-22T07:24:28.519Z,11.43
2023-02-22T07:26:55.488Z,13.63
2023-02-22T07:29:25.125Z,11.90
2023-02-22T07:31:51.951Z,12.70
2023-02-22T07:34:18.765Z,12.70
2023-02-22T07:36:45.454Z,14.05
2023-02-22T07:39:12.227Z,13.20
2023-02-22T07:41:38.904Z,13.98
2023-02-22T07:44:05.782Z,14.18
2023-02-22T07:46:32.555Z,14.60
2023-02-22T07:48:59.290Z,14.48
2023-02-22T07:51:27.052Z,16.45
2023-02-22T07:53:53.835Z,25.50
2023-02-22T07:56:20.667Z,30.20
2023-02-22T07:58:47.643Z,27.70
2023-02-22T08:01:14.392Z,15.48
2023-02-22T08:03:41.353Z,14.07
2023-02-22T08:06:08.674Z,15.32
2023-02-22T08:08:35.352Z,13.75
2023-02-22T08:11:02.471Z,11.52
2023-02-22T08:13:29.324Z,12.43
2023-02-22T08:15:56.186Z,12.98
2023-02-22T08:18:24.135Z,14.02
2023-02-22T08:20:52.297Z,14.73
2023-02-22T08:23:21.171Z,15.10
2023-02-22T08:25:48.080Z,13.52
2023-02-22T08:28:17.820Z,13.63
2023-02-22T08:30:44.557Z,13.05
2023-02-22T08:33:19.130Z,13.50
2023-02-22T08:35:49.517Z,12.88
2023-02-22T08:38:23.553Z,12.00
2023-02-22T08:40:50.586Z,11.43
2023-02-22T08:43:19.052Z,9.73
2023-02-22T08:45:46.664Z,9.23
2023-02-22T08:48:15.334Z,8.43
2023-02-22T08:50:42.244Z,8.23
2023-02-22T08:53:10.195Z,8.88
2023-02-22T08:55:39.045Z,8.43
2023-02-22T08:58:09.244Z,8.43
2023-02-22T09:00:38.888Z,7.97
2023-02-22T09:03:08.299Z,8.30
2023-02-22T09:05:35.178Z,9.32
2023-02-22T09:08:02.046Z,9.02
2023-02-22T09:10:31.884Z,10.43
2023-02-22T09:13:00.840Z,9.93
2023-02-22T09:15:28.364Z,9.27
2023-02-22T09:17:55.791Z,9.68
2023-02-22T09:20:24.347Z,11.75
2023-02-22T09:22:51.492Z,12.65
2023-02-22T09:25:20.884Z,11.20
2023-02-22T09:27:52.577Z,10.07
2023-02-22T09:30:32.781Z,11.13
2023-02-22T09:33:11.870Z,10.95
2023-02-22T09:35:42.389Z,11.20
2023-02-22T09:38:10.349Z,11.07
2023-02-22T09:40:45.070Z,10.77
2023-02-22T09:43:20.934Z,11.77
2023-02-22T09:46:06.071Z,10.80
2023-02-22T09:48:51.444Z,11.40
2023-02-22T09:51:20.590Z,11.85
2023-02-22T09:53:50.703Z,11.25
2023-02-22T09:56:19.743Z,11.10
2023-02-22T09:58:52.731Z,11.18
2023-02-22T10:01:27.232Z,10.25
2023-02-22T10:04:19.164Z,10.27
2023-02-22T10:07:15.271Z,10.70
2023-02-22T10:09:43.697Z,11.50
2023-02-22T10:12:50.389Z,10.30
2023-02-22T10:15:44.714Z,10.50
2023-02-22T10:18:39.528Z,10.27
2023-02-22T10:21:31.141Z,10.63
2023-02-22T10:24:38.542Z,9.82
2023-02-22T10:27:09.492Z,10.57
2023-02-22T10:29:46.588Z,10.50
2023-02-22T10:32:25.979Z,9.70
2023-02-22T10:34:54.727Z,9.70
2023-02-22T10:37:25.457Z,11.48
2023-02-22T10:40:18.158Z,9.30
2023-02-22T10:42:45.087Z,10.55
2023-02-22T10:45:32.762Z,10.35
2023-02-22T10:48:03.526Z,10.98
2023-02-22T10:50:33.698Z,11.13
2023-02-22T10:53:00.482Z,10.57
2023-02-22T10:55:27.452Z,10.80
2023-02-22T10:58:04.700Z,11.15
2023-02-22T11:00:37.306Z,11.20
2023-02-22T11:03:18.224Z,12.35
2023-02-22T11:05:44.922Z,11.35
2023-02-22T11:08:33.058Z,10.60
2023-02-22T11:11:20.324Z,10.95
2023-02-22T11:13:57.497Z,11.77
2023-02-22T11:16:33.043Z,10.98
2023-02-22T11:19:02.885Z,10.95
2023-02-22T11:21:32.383Z,11.57
2023-02-22T11:24:11.311Z,12.23
2023-02-22T11:26:43.743Z,11.73
2023-02-22T11:29:34.052Z,11.73
2023-02-22T11:32:14.125Z,11.65
2023-02-22T11:34:45.216Z,14.05
2023-02-22T11:37:25.854Z,13.48
2023-02-22T11:40:24.979Z,12.13
2023-02-22T11:43:16.025Z,12.55
2023-02-22T11:46:05.506Z,13.18
2023-02-22T11:48:36.830Z,12.93
2023-02-22T11:51:16.516Z,13.52
2023-02-22T11:53:57.030Z,13.57
2023-02-22T11:56:49.162Z,13.30
2023-02-22T11:59:41.433Z,13.60
2023-02-22T12:02:24.288Z,14.18
2023-02-22T12:05:10.975Z,14.60
2023-02-22T12:08:05.306Z,14.90
2023-02-22T12:10:42.896Z,13.73
2023-02-22T12:13:26.182Z,13.02
2023-02-22T12:16:01.931Z,13.48
2023-02-22T12:18:54.959Z,13.00
2023-02-22T12:21:24.693Z,14.70
2023-02-22T12:23:55.044Z,14.88
2023-02-22T12:26:36.556Z,13.60
2023-02-22T12:29:26.156Z,14.57
2023-02-22T12:32:09.744Z,14.27
2023-02-22T12:34:43.582Z,14.27
2023-02-22T12:37:17.994Z,14.00
2023-02-22T12:39:53.966Z,13.95
2023-02-22T12:42:46.776Z,13.65
2023-02-22T12:45:27.110Z,13.63
2023-02-22T12:48:07.210Z,13.43
2023-02-22T12:50:36.536Z,15.25
2023-02-22T12:53:20.099Z,14.70
2023-02-22T12:56:00.206Z,15.43
2023-02-22T12:58:56.588Z,14.70
2023-02-22T13:01:30.002Z,14.65
2023-02-22T13:03:56.906Z,14.75
2023-02-22T13:06:29.653Z,14.35
2023-02-22T13:09:01.891Z,15.68
2023-02-22T13:12:02.724Z,13.88
2023-02-22T13:14:52.601Z,13.55
2023-02-22T13:17:26.770Z,13.75
2023-02-22T13:20:11.698Z,13.20
2023-02-22T13:25:21.831Z,13.95
2023-02-22T13:28:13.382Z,13.43
2023-02-22T13:31:15.297Z,14.10
2023-02-22T13:34:01.191Z,13.43
2023-02-22T13:36:38.406Z,12.85
2023-02-22T13:39:27.984Z,13.43
2023-02-22T13:42:20.448Z,13.25
2023-02-22T13:45:08.227Z,13.15
2023-02-22T13:48:05.153Z,13.60
2023-02-22T13:51:03.182Z,14.60
2023-02-22T13:53:37.346Z,13.65
2023-02-22T13:56:04.531Z,14.27
2023-02-22T13:58:31.403Z,13.40
2023-02-22T14:00:59.776Z,14.70
2023-02-22T14:03:36.583Z,13.15
2023-02-22T14:06:05.497Z,13.05
2023-02-22T14:08:33.692Z,13.63
2023-02-22T14:11:02.212Z,12.23
2023-02-22T14:13:30.504Z,14.50
2023-02-22T14:16:00.410Z,15.50
2023-02-22T14:18:42.089Z,12.70
2023-02-22T14:21:14.322Z,12.95
2023-02-22T14:23:43.268Z,13.20
2023-02-22T14:26:26.668Z,12.68
2023-02-22T14:29:08.618Z,11.32
2023-02-22T14:31:43.517Z,13.15
2023-02-22T14:34:12.072Z,14.10
2023-02-22T14:36:41.857Z,12.55
2023-02-22T14:39:21.816Z,12.70
2023-02-22T14:42:04.417Z,13.02
2023-02-22T14:44:39.573Z,13.02
2023-02-22T14:47:10.094Z,13.15
2023-02-22T14:49:41.921Z,12.48
2023-02-22T14:52:19.663Z,13.18
2023-02-22T14:55:04.450Z,14.25
2023-02-22T15:00:42.637Z,12.60
2023-02-22T15:03:32.941Z,13.52
2023-02-22T15:06:22.939Z,13.38
2023-02-22T15:09:23.534Z,14.02
2023-02-22T15:11:55.176Z,13.45
2023-02-22T15:14:26.709Z,14.27
2023-02-22T15:16:57.248Z,14.13
2023-02-22T15:19:37.223Z,12.10
2023-02-22T15:22:06.526Z,12.88
2023-02-22T15:24:36.214Z,12.63
2023-02-22T15:27:23.257Z,13.88
2023-02-22T15:29:56.578Z,16.20
2023-02-22T15:32:36.614Z,15.90
2023-02-22T15:35:29.560Z,13.63
2023-02-22T15:38:11.572Z,12.05
2023-02-22T15:40:42.956Z,11.75
2023-02-22T15:43:28.484Z,11.13
2023-02-22T15:45:56.670Z,11.60
2023-02-22T15:48:26.177Z,11.75
2023-02-22T15:51:10.630Z,11.07
2023-02-22T15:53:46.877Z,10.68
2023-02-22T15:56:23.816Z,11.15
2023-02-22T15:58:50.784Z,12.40
2023-02-22T16:01:19.949Z,12.07
2023-02-22T16:03:50.046Z,12.10
2023-02-22T16:06:35.174Z,11.50
2023-02-22T16:09:09.322Z,12.88
2023-02-22T16:11:43.801Z,11.98
2023-02-22T16:17:30.865Z,11.90
2023-02-22T16:19:59.903Z,13.10
2023-02-22T16:22:37.842Z,12.20
2023-02-22T16:25:19.685Z,12.82
2023-02-22T16:27:59.872Z,12.70
2023-02-22T16:30:32.418Z,13.85
2023-02-22T16:33:00.998Z,14.50
2023-02-22T16:35:29.495Z,16.70
2023-02-22T16:38:00.321Z,15.85
2023-02-22T16:40:39.816Z,16.13
2023-02-22T16:43:09.813Z,13.05
2023-02-22T16:45:36.500Z,13.25
2023-02-22T16:48:20.850Z,12.75
2023-02-22T16:50:53.055Z,13.82
2023-02-22T16:53:23.834Z,17.33
2023-02-22T16:55:57.561Z,14.63
2023-02-22T16:58:28.647Z,16.27
2023-02-22T17:00:57.397Z,15.90
2023-02-22T17:03:25.917Z,17.50
2023-02-22T17:05:53.096Z,18.13
2023-02-22T17:08:19.789Z,19.05
2023-02-22T17:10:46.530Z,17.20
2023-02-22T17:13:23.616Z,24.73
2023-02-22T17:15:51.957Z,19.52
2023-02-22T17:18:24.082Z,20.80
2023-02-22T17:20:52.464Z,16.48
2023-02-22T17:23:20.195Z,14.60
2023-02-22T17:26:02.335Z,15.43
2023-02-22T17:28:30.020Z,15.52
2023-02-22T17:31:02.442Z,13.93
2023-02-22T17:33:32.922Z,14.45
2023-02-22T17:36:02.662Z,14.60
2023-02-22T17:38:30.769Z,14.07
2023-02-22T17:40:59.322Z,14.18
2023-02-22T17:43:27.932Z,14.48
2023-02-22T17:45:55.137Z,14.13
2023-02-22T17:48:24.201Z,14.50
2023-02-22T17:50:51.962Z,14.38
2023-02-22T17:53:22.522Z,15.30
2023-02-22T17:55:49.715Z,16.35
2023-02-22T18:02:04.284Z,15.63
2023-02-22T18:04:34.741Z,14.25
2023-02-22T18:07:01.497Z,15.02
2023-02-22T18:09:28.145Z,14.48
2023-02-22T18:11:54.748Z,15.40
2023-02-22T18:14:21.461Z,16.30
2023-02-22T18:16:48.068Z,16.80
2023-02-22T18:19:20.441Z,17.20
2023-02-22T18:21:48.714Z,16.23
2023-02-22T18:24:15.379Z,15.40
2023-02-22T18:26:42.091Z,15.35
2023-02-22T18:29:12.285Z,16.23
2023-02-22T18:31:39.117Z,17.35
2023-02-22T18:34:05.873Z,18.73
2023-02-22T18:36:32.547Z,18.27
2023-02-22T18:38:59.256Z,16.38
2023-02-22T18:41:26.481Z,17.17
2023-02-22T18:43:55.666Z,16.75
2023-02-22T18:46:24.355Z,16.85
2023-02-22T18:48:54.271Z,17.35
2023-02-22T18:51:21.358Z,17.80
2023-02-22T18:53:49.844Z,16.80
2023-02-22T18:56:21.576Z,17.00
2023-02-22T18:58:53.230Z,17.63
2023-02-22T19:01:20.651Z,16.45
2023-02-22T19:03:47.392Z,16.48
2023-02-22T19:06:16.477Z,17.05
2023-02-22T19:08:45.071Z,17.15
2023-02-22T19:11:17.863Z,19.90
2023-02-22T19:13:48.988Z,17.13
2023-02-22T19:16:19.758Z,17.23
2023-02-22T19:18:47.658Z,17.30
2023-02-22T19:21:14.942Z,16.45
2023-02-22T19:23:46.134Z,22.38
2023-02-22T19:26:14.747Z,18.35
2023-02-22T19:28:41.432Z,17.25
2023-02-22T19:31:19.349Z,16.45
2023-02-22T19:33:48.036Z,17.88
2023-02-22T19:36:15.505Z,17.42
2023-02-22T19:38:42.566Z,18.33
2023-02-22T19:41:12.404Z,17.10
2023-02-22T19:43:39.457Z,18.35
2023-02-22T19:46:07.621Z,18.13
2023-02-22T19:48:34.580Z,17.20
2023-02-22T19:51:06.707Z,17.70
2023-02-22T19:53:34.642Z,17.92
2023-02-22T19:56:11.720Z,17.30
2023-02-22T19:58:40.686Z,17.75
2023-02-22T20:01:22.972Z,16.95
2023-02-22T20:03:54.295Z,17.17
2023-02-22T20:06:23.144Z,17.65
2023-02-22T20:08:51.155Z,18.55
2023-02-22T20:11:18.232Z,19.17
2023-02-22T20:13:45.388Z,21.67
2023-02-22T20:16:15.636Z,20.00
2023-02-22T20:18:43.875Z,20.35
2023-02-22T20:21:14.015Z,19.25
2023-02-22T20:23:44.189Z,18.33
2023-02-22T20:26:31.561Z,17.25
2023-02-22T20:28:59.581Z,15.88
2023-02-22T20:31:26.676Z,14.48
2023-02-22T20:33:55.710Z,15.00
2023-02-22T20:36:22.997Z,14.45
2023-02-22T20:38:54.325Z,15.45
2023-02-22T20:41:28.076Z,15.85
2023-02-22T20:43:56.214Z,15.07
2023-02-22T20:46:27.726Z,15.23
2023-02-22T20:48:55.944Z,15.98
2023-02-22T20:51:23.400Z,16.38
2023-02-22T20:53:50.246Z,15.27
2023-02-22T20:56:22.710Z,14.48
2023-02-22T20:58:49.620Z,16.13
2023-02-22T21:01:19.595Z,16.60
2023-02-22T21:03:46.836Z,16.15
2023-02-22T21:06:15.722Z,17.40
2023-02-22T21:08:43.691Z,14.95
2023-02-22T21:11:15.686Z,14.05
2023-02-22T21:13:42.460Z,13.70
2023-02-22T21:16:15.446Z,14.25
2023-02-22T21:18:42.129Z,15.68
2023-02-22T21:21:12.634Z,16.15
2023-02-22T21:23:42.893Z,16.02
2023-02-22T21:26:15.646Z,17.20
2023-02-22T21:28:50.845Z,16.35
2023-02-22T21:31:20.333Z,17.92
2023-02-22T21:33:50.464Z,17.70
2023-02-22T21:36:18.109Z,18.20
2023-02-22T21:38:53.357Z,18.08
2023-02-22T21:41:21.571Z,18.75
2023-02-22T21:43:52.151Z,15.75
2023-02-22T21:46:19.533Z,15.07
2023-02-22T21:48:48.910Z,15.65
2023-02-22T21:51:25.351Z,15.63
2023-02-22T21:53:54.522Z,16.95
2023-02-22T21:56:28.428Z,18.10
2023-02-22T21:59:00.135Z,18.70
2023-02-22T22:01:28.651Z,18.45
2023-02-22T22:03:56.418Z,18.08
2023-02-22T22:06:23.014Z,18.25
2023-02-22T22:08:50.401Z,17.83
2023-02-22T22:11:17.899Z,16.40
2023-02-22T22:13:44.808Z,17.42
2023-02-22T22:16:14.794Z,17.40
2023-02-22T22:18:43.124Z,18.00
2023-02-22T22:21:22.744Z,18.48
2023-02-22T22:23:50.741Z,17.83
2023-02-22T22:26:20.147Z,15.98
2023-02-22T22:28:56.088Z,16.38
2023-02-22T22:31:26.006Z,14.90
2023-02-22T22:33:53.992Z,14.35
2023-02-22T22:36:21.999Z,16.23
2023-02-22T22:38:49.492Z,15.13
2023-02-22T22:41:18.827Z,15.95
2023-02-22T22:43:48.743Z,15.40
2023-02-22T22:46:17.743Z,14.70
2023-02-22T22:48:46.751Z,14.48
2023-02-22T22:51:18.267Z,13.63
2023-02-22T22:53:46.933Z,14.38
2023-02-22T22:56:25.960Z,14.32
2023-02-22T22:58:57.571Z,13.75
2023-02-22T23:01:27.352Z,14.85
2023-02-22T23:03:59.286Z,14.95
2023-02-22T23:06:33.316Z,15.57
2023-02-22T23:09:00.068Z,13.68
2023-02-22T23:11:28.861Z,15.80
2023-02-22T23:13:56.478Z,15.10
2023-02-22T23:16:24.652Z,14.88
2023-02-22T23:18:51.506Z,14.45
2023-02-22T23:21:19.957Z,13.80
2023-02-22T23:23:51.520Z,14.35
2023-02-22T23:26:18.427Z,14.52
2023-02-22T23:28:47.730Z,14.20
2023-02-22T23:31:17.363Z,14.55
2023-02-22T23:33:48.108Z,14.50
2023-02-22T23:36:16.090Z,16.38
2023-02-22T23:38:43.521Z,15.68
2023-02-22T23:41:12.911Z,14.75
2023-02-22T23:43:40.758Z,14.93
2023-02-22T23:46:10.841Z,14.63
2023-02-22T23:48:47.026Z,14.77
2023-02-22T23:51:16.265Z,15.45
2023-02-22T23:53:46.002Z,15.65
2023-02-22T23:56:20.980Z,15.40
2023-02-22T23:58:52.357Z,15.55
